Time;durP1;ratioP1;P1;durP2;ratioP2;P2;SDS_P1;SDS_P2;PMS_P1;PMS_P2;Temp;Humidity;BMP_temperature;BMP_pressure;BME280_temperature;BME280_humidity;BME280_pressure;Samples;Min_cycle;Max_cycle;Signal;HPM_P1;HPM_P2
2022/04/26 03:37:53;;;;;;;19.55;11.68;;;;;;;27.46;22.80;97853.13;5073703;28;20464;-78
2022/04/26 03:40:19;;;;;;;21.63;12.55;;;;;;;27.33;23.00;97848.31;5074101;28;20511;-78
2022/04/26 03:42:45;;;;;;;19.85;10.65;;;;;;;27.22;22.74;97849.97;5076833;28;20391;-78
2022/04/26 03:45:11;;;;;;;18.55;10.63;;;;;;;27.36;22.74;97855.06;5070209;28;20036;-78
2022/04/26 03:47:37;;;;;;;19.15;10.43;;;;;;;27.33;22.85;97851.13;5071757;28;20032;-78
2022/04/26 03:50:04;;;;;;;17.38;10.38;;;;;;;27.35;22.81;97859.91;5075731;28;20020;-78
2022/04/26 03:52:30;;;;;;;16.02;10.30;;;;;;;27.34;22.75;97854.75;5078659;28;20028;-78
2022/04/26 03:54:56;;;;;;;18.35;9.57;;;;;;;27.41;22.71;97854.50;5070088;28;20031;-78
2022/04/26 03:57:22;;;;;;;18.40;11.23;;;;;;;27.63;22.38;97857.28;5079405;28;20105;-78
2022/04/26 03:59:48;;;;;;;16.40;9.15;;;;;;;27.61;22.34;97871.06;5074277;28;20029;-78
2022/04/26 04:02:14;;;;;;;18.10;10.77;;;;;;;27.59;22.55;97870.72;5074230;28;20089;-78
2022/04/26 04:04:40;;;;;;;16.45;11.23;;;;;;;27.58;22.53;97880.44;5072591;28;20032;-79
2022/04/26 04:07:06;;;;;;;17.23;9.98;;;;;;;27.46;22.59;97873.66;5074065;28;20497;-78
2022/04/26 04:09:32;;;;;;;15.80;10.32;;;;;;;27.44;22.47;97878.19;5069818;28;20044;-78
2022/04/26 04:11:58;;;;;;;15.98;10.05;;;;;;;27.28;22.94;97885.56;5073182;28;20766;-78
2022/04/26 04:14:24;;;;;;;21.33;13.23;;;;;;;26.69;23.67;97880.91;5074914;28;20047;-78
2022/04/26 04:16:50;;;;;;;16.42;11.18;;;;;;;26.43;23.65;97882.22;5068095;28;20060;-79
2022/04/26 04:19:20;;;;;;;19.02;12.05;;;;;;;26.46;23.83;97886.94;5075137;28;20105;-78
2022/04/26 04:21:48;;;;;;;17.92;11.70;;;;;;;26.58;23.89;97896.59;5074224;28;20044;-78
2022/04/26 04:24:15;;;;;;;15.10;9.68;;;;;;;26.65;23.68;97899.16;5067936;28;20028;-78
2022/04/26 04:26:41;;;;;;;17.15;11.18;;;;;;;26.59;24.01;97893.31;5072344;28;20387;-78
2022/04/26 04:29:08;;;;;;;19.77;11.43;;;;;;;26.56;23.79;97899.84;5072469;28;20486;-79
2022/04/26 04:31:34;;;;;;;18.73;10.77;;;;;;;26.32;24.05;97901.50;5073173;28;20056;-78
2022/04/26 04:34:02;;;;;;;18.92;12.38;;;;;;;26.28;23.98;97909.25;5077210;28;20085;-79
2022/04/26 04:36:28;;;;;;;14.48;10.05;;;;;;;26.12;24.43;97906.59;5073446;28;20055;-79
2022/04/26 04:38:55;;;;;;;15.82;9.88;;;;;;;26.59;23.96;97906.59;5078105;28;20036;-78
2022/04/26 04:41:21;;;;;;;16.35;10.07;;;;;;;26.82;23.51;97905.41;5070907;28;20036;-80
2022/04/26 04:43:47;;;;;;;19.17;10.15;;;;;;;26.95;23.41;97914.63;5071744;28;20039;-80
2022/04/26 04:46:13;;;;;;;16.65;9.43;;;;;;;27.24;23.16;97907.47;5077505;28;20040;-80
2022/04/26 04:48:39;;;;;;;14.18;9.18;;;;;;;27.23;23.22;97916.41;5077543;28;20039;-80
2022/04/26 04:51:07;;;;;;;14.68;9.85;;;;;;;27.22;23.30;97921.25;5076194;28;20037;-79
2022/04/26 04:53:33;;;;;;;13.73;8.95;;;;;;;27.42;22.88;97921.72;5082077;28;20037;-78
2022/04/26 04:56:00;;;;;;;17.58;9.45;;;;;;;27.11;23.14;97926.50;5075134;28;20032;-79
2022/04/26 04:58:26;;;;;;;13.82;8.65;;;;;;;27.20;23.04;97925.75;5078156;28;20039;-79
2022/04/26 05:00:52;;;;;;;12.38;7.85;;;;;;;27.40;23.05;97931.88;5075173;28;20040;-79
2022/04/26 05:03:18;;;;;;;15.23;10.30;;;;;;;27.22;23.25;97931.72;5078402;28;20028;-79
2022/04/26 05:05:44;;;;;;;10.02;7.15;;;;;;;27.12;23.32;97936.50;5078291;28;20535;-79
2022/04/26 05:08:11;;;;;;;14.73;10.18;;;;;;;27.00;23.27;97942.22;5079704;28;20032;-79
2022/04/26 05:10:37;;;;;;;12.50;8.48;;;;;;;26.90;23.41;97944.16;5074294;28;20033;-79
2022/04/26 05:13:04;;;;;;;15.35;8.68;;;;;;;27.02;23.52;97939.72;5072436;28;20032;-79
2022/04/26 05:15:31;;;;;;;9.82;6.93;;;;;;;26.98;23.31;97945.47;5072291;28;20032;-79
2022/04/26 05:17:57;;;;;;;14.02;10.05;;;;;;;26.73;23.54;97946.34;5077435;28;20099;-79
2022/04/26 05:20:23;;;;;;;13.18;8.90;;;;;;;26.79;23.58;97949.41;5079163;28;20028;-79
2022/04/26 05:25:37;;;;;;;14.95;10.52;;;;;;;26.76;23.57;97960.78;5074747;28;20044;-79
2022/04/26 05:28:04;;;;;;;13.07;8.55;;;;;;;26.57;23.95;97959.78;5075117;28;20315;-79
2022/04/26 05:30:30;;;;;;;16.83;10.38;;;;;;;26.65;23.74;97966.75;5079970;28;20032;-79
2022/04/26 05:32:56;;;;;;;16.75;9.90;;;;;;;26.64;23.60;97962.34;5074151;28;20123;-79
2022/04/26 05:35:22;;;;;;;17.90;11.32;;;;;;;26.55;24.06;97973.53;5079704;28;20366;-78
2022/04/26 05:37:49;;;;;;;17.45;10.85;;;;;;;26.51;23.95;97976.44;5075488;28;20119;-79
2022/04/26 05:40:15;;;;;;;16.48;10.07;;;;;;;26.59;24.09;97968.56;5070324;28;20028;-79
2022/04/26 05:42:41;;;;;;;18.85;11.23;;;;;;;26.67;23.73;97976.34;5075771;28;20025;-78
2022/04/26 05:45:07;;;;;;;17.05;11.23;;;;;;;26.93;23.58;97976.28;5070526;28;20037;-78
2022/04/26 05:47:39;;;;;;;17.65;10.57;;;;;;;26.93;23.77;97985.53;5074970;28;20075;-78
2022/04/26 05:50:06;;;;;;;15.75;11.05;;;;;;;26.94;23.59;97986.28;5076708;28;20067;-79
2022/04/26 05:52:32;;;;;;;16.95;10.23;;;;;;;26.85;24.00;97989.03;5078652;28;20042;-80
2022/04/26 05:55:00;;;;;;;25.23;16.67;;;;;;;26.76;23.82;97988.94;5075601;28;20032;-78
2022/04/26 05:57:27;;;;;;;19.92;13.23;;;;;;;26.52;24.04;97989.31;5072252;28;20024;-79
2022/04/26 05:59:53;;;;;;;20.48;12.35;;;;;;;26.38;24.42;97988.97;5074065;28;20037;-78
2022/04/26 06:02:19;;;;;;;15.93;11.10;;;;;;;26.69;23.83;97987.94;5075831;28;20446;-79
2022/04/26 06:04:45;;;;;;;25.00;14.43;;;;;;;26.57;24.13;97994.38;5076237;28;20048;-79
2022/04/26 06:07:11;;;;;;;19.48;13.20;;;;;;;26.64;24.00;97999.75;5080160;28;20039;-79
2022/04/26 06:09:38;;;;;;;22.83;14.73;;;;;;;26.92;23.74;98000.06;5075615;28;20387;-79
2022/04/26 06:12:05;;;;;;;20.50;13.05;;;;;;;26.80;24.03;98006.50;5075663;28;20414;-79
2022/04/26 06:14:31;;;;;;;25.13;11.55;;;;;;;26.94;23.67;98001.19;5074063;28;20077;-79
2022/04/26 06:16:57;;;;;;;18.02;11.65;;;;;;;27.06;24.07;98000.34;5083730;28;20040;-79
2022/04/26 06:19:23;;;;;;;22.90;16.05;;;;;;;27.03;24.01;98000.47;5080245;28;20024;-79
2022/04/26 06:21:49;;;;;;;22.27;15.00;;;;;;;27.05;23.75;98006.47;5070972;28;20076;-79
2022/04/26 06:24:15;;;;;;;21.02;12.18;;;;;;;27.03;23.92;98003.28;5077556;28;20036;-79
2022/04/26 06:26:41;;;;;;;17.75;10.85;;;;;;;27.08;24.05;98002.69;5076167;28;20047;-79
2022/04/26 06:29:07;;;;;;;14.68;9.77;;;;;;;27.30;23.96;98006.34;5075088;28;20044;-79
2022/04/26 06:31:33;;;;;;;16.67;10.73;;;;;;;27.49;23.69;98005.28;5076768;28;20076;-79
2022/04/26 06:33:59;;;;;;;15.93;11.00;;;;;;;28.03;23.14;98008.44;5078193;28;20032;-79
2022/04/26 06:36:25;;;;;;;16.58;10.45;;;;;;;28.40;22.74;98008.63;5076585;28;20386;-79
2022/04/26 06:38:51;;;;;;;16.15;9.20;;;;;;;28.59;22.68;98007.47;5076926;28;20027;-79
2022/04/26 06:41:18;;;;;;;17.33;10.90;;;;;;;28.48;22.28;98005.03;5080396;28;20086;-79
2022/04/26 06:43:44;;;;;;;21.00;11.77;;;;;;;28.43;22.33;98010.50;5073813;28;20501;-79
2022/04/26 06:46:10;;;;;;;18.50;11.05;;;;;;;28.03;22.27;98002.81;5076840;28;20058;-79
2022/04/26 06:48:36;;;;;;;14.35;9.93;;;;;;;28.17;22.78;98011.97;5076284;28;20032;-79
2022/04/26 06:51:03;;;;;;;17.10;12.05;;;;;;;28.05;22.97;98011.59;5077829;28;20051;-79
2022/04/26 06:53:29;;;;;;;15.55;10.27;;;;;;;28.11;22.90;98008.16;5076157;28;20028;-79
2022/04/26 06:55:55;;;;;;;15.48;10.25;;;;;;;28.30;22.38;98021.13;5075194;28;20489;-79
2022/04/26 06:58:21;;;;;;;15.63;10.13;;;;;;;28.10;22.86;98018.66;5073949;28;20050;-78
2022/04/26 07:00:49;;;;;;;17.50;12.02;;;;;;;27.74;22.77;98007.16;5071101;28;20127;-79
2022/04/26 07:03:15;;;;;;;18.48;11.00;;;;;;;28.09;23.08;98017.13;5073620;28;20047;-79
2022/04/26 07:05:41;;;;;;;16.48;11.63;;;;;;;28.40;22.91;98019.91;5074937;28;20054;-79
2022/04/26 07:08:08;;;;;;;19.70;12.18;;;;;;;28.93;21.98;98023.38;5078258;28;20040;-79
2022/04/26 07:10:34;;;;;;;17.05;11.20;;;;;;;28.89;21.95;98022.75;5077362;28;20031;-79
2022/04/26 07:13:00;;;;;;;20.80;12.63;;;;;;;28.49;21.63;98026.38;5072383;28;20068;-79
2022/04/26 07:15:26;;;;;;;19.23;12.07;;;;;;;28.21;21.79;98033.19;5070314;28;20056;-79
2022/04/26 07:17:52;;;;;;;17.70;11.75;;;;;;;27.95;22.49;98029.72;5075446;28;20035;-79
2022/04/26 07:20:18;;;;;;;20.15;14.30;;;;;;;27.44;22.96;98036.09;5072096;28;20036;-80
2022/04/26 07:22:44;;;;;;;21.65;14.93;;;;;;;27.31;22.90;98033.28;5078016;28;20114;-79
2022/04/26 07:25:11;;;;;;;20.70;13.73;;;;;;;27.46;23.38;98042.84;5078501;28;20085;-79
2022/04/26 07:27:37;;;;;;;19.38;12.35;;;;;;;27.50;23.84;98042.72;5074585;28;20025;-79
2022/04/26 07:30:04;;;;;;;16.48;11.65;;;;;;;27.97;22.76;98041.31;5076830;28;20139;-79
2022/04/26 07:35:15;;;;;;;18.15;12.13;;;;;;;27.33;23.21;98040.03;5073773;28;20067;-80
2022/04/26 07:37:41;;;;;;;20.23;11.93;;;;;;;27.78;23.32;98047.31;5077193;28;20033;-80
2022/04/26 07:40:09;;;;;;;16.58;11.73;;;;;;;28.15;23.17;98043.47;5073196;28;20072;-80
2022/04/26 07:42:35;;;;;;;17.65;12.15;;;;;;;28.78;22.30;98051.44;5076321;28;20032;-80
2022/04/26 07:45:02;;;;;;;22.25;12.57;;;;;;;28.93;21.37;98046.78;5075592;28;20476;-80
2022/04/26 07:47:30;;;;;;;15.73;11.55;;;;;;;29.15;21.13;98050.25;5075335;28;20058;-80
2022/04/26 07:49:57;;;;;;;17.38;11.43;;;;;;;29.21;21.25;98048.44;5073156;28;20042;-80
2022/04/26 07:52:24;;;;;;;13.98;10.43;;;;;;;28.90;22.68;98038.44;5076605;28;21872;-79
2022/04/26 07:54:50;;;;;;;15.32;10.50;;;;;;;29.38;21.79;98037.59;5084655;28;20068;-79
2022/04/26 07:57:16;;;;;;;15.73;11.00;;;;;;;29.71;20.79;98049.81;5077982;28;20024;-80
2022/04/26 07:59:43;;;;;;;15.45;9.82;;;;;;;29.60;21.16;98049.53;5076818;28;20028;-80
2022/04/26 08:02:10;;;;;;;19.38;11.70;;;;;;;29.85;21.47;98051.28;5078297;28;20028;-81
2022/04/26 08:04:37;;;;;;;14.55;10.52;;;;;;;30.11;20.37;98052.47;5072902;28;20032;-80
2022/04/26 08:07:06;;;;;;;16.00;9.55;;;;;;;30.32;21.13;98054.28;5075871;28;20087;-80
2022/04/26 08:09:38;;;;;;;11.55;8.45;;;;;;;30.24;19.50;98053.06;5073433;28;20032;-80
2022/04/26 08:12:05;;;;;;;15.05;8.93;;;;;;;30.21;20.61;98051.19;5074552;28;20054;-80
2022/04/26 08:14:31;;;;;;;9.88;8.02;;;;;;;30.56;19.94;98060.84;5074489;28;20036;-80
2022/04/26 08:16:57;;;;;;;11.57;8.50;;;;;;;30.30;20.46;98068.16;5077283;28;20036;-81
2022/04/26 08:19:23;;;;;;;9.02;7.07;;;;;;;30.32;20.35;98067.66;5080305;28;20059;-81
2022/04/26 08:21:49;;;;;;;12.68;9.05;;;;;;;30.23;19.85;98065.66;5078529;28;20044;-81
2022/04/26 08:29:46;;;;;;;9.38;6.88;;;;;;;29.00;21.84;98074.75;5078435;28;20095;-80
2022/04/26 08:32:13;;;;;;;15.38;7.00;;;;;;;29.59;20.92;98069.81;5078393;28;20104;-80
2022/04/26 08:34:40;;;;;;;10.57;6.65;;;;;;;30.10;20.34;98076.41;5073325;28;20028;-82
2022/04/26 08:37:06;;;;;;;10.93;6.45;;;;;;;30.12;20.10;98081.56;5077731;28;20478;-80
2022/04/26 08:39:32;;;;;;;7.80;5.85;;;;;;;29.94;20.28;98076.75;5079709;28;20528;-80
2022/04/26 08:41:59;;;;;;;8.30;5.80;;;;;;;29.91;21.35;98077.69;5080122;28;20035;-81
2022/04/26 08:44:27;;;;;;;8.35;6.97;;;;;;;30.22;21.76;98083.91;5077104;28;20021;-79
2022/04/26 08:52:26;;;;;;;9.95;6.70;;;;;;;28.76;20.92;98087.88;5079514;28;20208;-79
2022/04/26 08:54:52;;;;;;;8.57;5.97;;;;;;;27.17;23.32;98073.25;5079809;28;20480;-80
2022/04/26 08:57:18;;;;;;;9.15;7.63;;;;;;;27.63;22.51;98085.75;5079913;28;20056;-80
2022/04/26 08:59:49;;;;;;;9.90;7.55;;;;;;;26.93;23.62;98081.34;5076798;28;20059;-80
2022/04/26 09:02:18;;;;;;;;;;;;;;;27.76;22.18;98083.66;5077589;28;20046;-77
2022/04/26 09:04:44;;;;;;;11.88;7.53;;;;;;;29.01;21.51;98081.97;5078554;28;19966;-80
2022/04/26 09:07:12;;;;;;;11.63;8.45;;;;;;;29.02;21.36;98089.22;5074154;28;20024;-79
2022/04/26 09:09:39;;;;;;;9.95;7.25;;;;;;;29.05;20.69;98088.28;5078194;28;20032;-80
2022/04/26 09:12:10;;;;;;;7.75;5.78;;;;;;;29.56;21.26;98087.72;5079407;28;20060;-80
2022/04/26 09:14:39;;;;;;;;;;;;;;;29.61;19.36;98089.94;5075623;28;20056;-80
2022/04/26 09:17:12;;;;;;;8.88;7.20;;;;;;;29.20;20.45;98094.91;5084442;28;19955;-80
2022/04/26 09:19:56;;;;;;;7.53;6.30;;;;;;;28.44;22.35;98086.31;5075444;28;20029;-79
2022/04/26 09:22:26;;;;;;;9.52;7.38;;;;;;;28.25;22.06;98092.31;5075108;28;20028;-79
2022/04/26 09:25:03;;;;;;;8.52;6.57;;;;;;;28.18;21.02;98095.41;5079775;28;20024;-79
2022/04/26 09:27:30;;;;;;;11.30;6.93;;;;;;;28.12;21.84;98095.25;5076479;28;20024;-79
2022/04/26 09:29:56;;;;;;;8.75;6.50;;;;;;;28.43;21.42;98101.66;5078006;28;20052;-79
2022/04/26 09:32:23;;;;;;;6.70;5.80;;;;;;;29.31;21.28;98097.31;5079968;28;20419;-80
2022/04/26 09:34:49;;;;;;;7.88;6.00;;;;;;;29.41;20.29;98105.31;5080123;28;20037;-80
2022/04/26 09:37:16;;;;;;;10.13;6.30;;;;;;;29.70;19.66;98090.72;5080526;28;20421;-80
2022/04/26 09:40:01;;;;;;;6.72;5.22;;;;;;;30.11;19.93;98099.84;5078624;28;20042;-80
2022/04/26 09:42:32;;;;;;;8.15;6.55;;;;;;;30.30;19.54;98102.13;5087176;28;20107;-79
2022/04/26 09:45:09;;;;;;;6.97;5.32;;;;;;;30.51;19.42;98100.38;5076629;28;20028;-80
2022/04/26 09:47:37;;;;;;;6.50;5.18;;;;;;;30.43;19.44;98107.66;5077223;28;20504;-79
2022/04/26 09:50:09;;;;;;;7.78;4.82;;;;;;;30.55;19.61;98101.78;5078614;28;20119;-80
2022/04/26 09:52:36;;;;;;;5.55;4.38;;;;;;;30.80;19.48;98089.25;5078166;28;20501;-79
2022/04/26 09:55:04;;;;;;;8.57;6.80;;;;;;;30.68;18.84;98096.69;5078299;28;20055;-80
2022/04/26 09:57:33;;;;;;;7.70;5.88;;;;;;;30.24;19.73;98092.72;5076985;28;20035;-80
2022/04/26 10:00:11;;;;;;;7.20;5.18;;;;;;;30.42;20.35;98103.22;5076823;28;20033;-81
2022/04/26 10:02:44;;;;;;;7.07;4.30;;;;;;;31.04;19.59;98086.47;5077921;28;20036;-81
2022/04/26 10:05:12;;;;;;;11.40;8.30;;;;;;;30.44;18.89;98095.03;5082206;28;20036;-81
2022/04/26 10:07:45;;;;;;;8.23;6.03;;;;;;;30.04;19.81;98086.78;5074310;28;20486;-79
2022/04/26 10:10:13;;;;;;;6.43;4.75;;;;;;;30.09;20.23;98086.94;5079174;28;20131;-81
2022/04/26 10:12:41;;;;;;;5.53;4.35;;;;;;;30.73;20.71;98087.53;5079147;28;20579;-80
2022/04/26 10:15:08;;;;;;;8.07;4.82;;;;;;;31.16;18.95;98082.59;5074807;28;20040;-80
2022/04/26 10:17:34;;;;;;;7.43;5.55;;;;;;;31.03;18.88;98076.38;5079599;28;20028;-81
2022/04/26 10:20:01;;;;;;;5.43;4.63;;;;;;;30.73;18.90;98079.03;5079976;28;20066;-81
2022/04/26 10:22:56;;;;;;;5.25;4.10;;;;;;;31.08;19.74;98085.03;5076716;28;20367;-81
2022/04/26 10:25:25;;;;;;;5.57;4.68;;;;;;;31.68;19.66;98087.59;5075389;28;20028;-80
2022/04/26 10:28:16;;;;;;;4.70;4.18;;;;;;;31.92;18.98;98093.22;5076506;28;20032;-81
2022/04/26 10:31:10;;;;;;;5.65;4.03;;;;;;;32.24;18.36;98088.66;5079790;28;20394;-81
2022/04/26 10:33:38;;;;;;;4.88;3.83;;;;;;;32.38;19.36;98090.72;5071758;28;20123;-81
2022/04/26 10:36:27;;;;;;;4.47;3.72;;;;;;;32.42;19.43;98091.28;5082631;28;20489;-81
2022/04/26 10:39:12;;;;;;;4.13;3.42;;;;;;;32.44;17.98;98086.69;5073351;28;20040;-80
2022/04/26 10:41:43;;;;;;;4.03;3.60;;;;;;;32.30;19.12;98087.47;5080883;28;20033;-81
2022/04/26 10:44:16;;;;;;;3.38;2.90;;;;;;;32.47;18.36;98079.25;5077161;28;20039;-81
2022/04/26 10:46:44;;;;;;;3.53;2.78;;;;;;;32.23;18.50;98082.19;5072400;28;20478;-81
2022/04/26 10:49:40;;;;;;;3.08;2.78;;;;;;;31.95;18.26;98081.66;5074739;28;20024;-80
2022/04/26 10:52:17;;;;;;;5.30;3.63;;;;;;;31.64;18.67;98084.16;5075509;28;20532;-80
2022/04/26 10:54:46;;;;;;;3.80;2.67;;;;;;;31.81;18.43;98084.50;5074470;28;20021;-80
2022/04/26 10:57:13;;;;;;;5.65;4.22;;;;;;;30.40;18.62;98089.56;5074328;28;20032;-80
2022/04/26 11:00:00;;;;;;;7.28;3.35;;;;;;;30.08;19.00;98090.25;5072545;28;20068;-81
2022/04/26 11:02:29;;;;;;;4.38;3.70;;;;;;;30.19;19.10;98089.75;5073715;28;20025;-81
2022/04/26 11:05:12;;;;;;;3.88;3.00;;;;;;;30.18;19.85;98091.78;5077768;28;20067;-81
2022/04/26 11:07:51;;;;;;;5.25;4.10;;;;;;;29.01;21.06;98089.69;5072841;28;20077;-80
2022/04/26 11:10:23;;;;;;;4.40;3.67;;;;;;;28.92;20.75;98090.44;5073977;28;20401;-79
2022/04/26 11:12:50;;;;;;;6.93;5.28;;;;;;;28.84;20.04;98086.34;5076187;28;20040;-80
2022/04/26 11:15:21;;;;;;;6.18;4.72;;;;;;;28.85;20.56;98092.75;5079650;28;20028;-80
2022/04/26 11:17:49;;;;;;;;;;;;;;;29.00;19.58;98100.19;5076646;28;20995;-81
2022/04/26 11:20:24;;;;;;;6.25;5.15;;;;;;;28.84;21.03;98092.00;5076435;28;19986;-81
2022/04/26 11:22:55;;;;;;;7.22;4.72;;;;;;;28.89;20.20;98102.69;5075131;28;20021;-81
2022/04/26 11:28:10;;;;;;;8.80;5.57;;;;;;;28.81;20.52;98100.59;5079058;28;20062;-80
2022/04/26 11:30:42;;;;;;;5.82;4.68;;;;;;;28.45;20.85;98095.59;5077622;28;20029;-81
2022/04/26 11:33:22;;;;;;;5.97;4.78;;;;;;;28.24;21.34;98104.88;5076738;28;20027;-80
2022/04/26 11:35:56;;;;;;;5.22;4.05;;;;;;;28.13;20.50;98110.13;5081627;28;20515;-81
2022/04/26 11:38:24;;;;;;;6.63;4.53;;;;;;;27.17;22.55;98107.06;5081968;28;20374;-81
2022/04/26 11:40:56;;;;;;;5.57;4.35;;;;;;;27.43;22.74;98108.63;5076128;28;20036;-81
2022/04/26 11:43:24;;;;;;;4.90;3.95;;;;;;;27.09;22.14;98112.19;5078624;28;20119;-80
2022/04/26 11:45:53;;;;;;;6.35;4.57;;;;;;;27.38;22.59;98106.38;5078034;28;20024;-80
2022/04/26 11:48:30;;;;;;;6.80;5.20;;;;;;;28.02;21.13;98102.06;5075343;28;20039;-80
2022/04/26 11:50:58;;;;;;;5.47;4.22;;;;;;;28.04;21.07;98108.84;5077165;28;20040;-80
2022/04/26 11:53:30;;;;;;;8.77;5.60;;;;;;;26.83;21.96;98104.22;5080258;28;20070;-80
2022/04/26 11:56:00;;;;;;;6.22;4.47;;;;;;;27.48;22.27;98108.03;5076624;28;20486;-80
2022/04/26 11:58:26;;;;;;;7.07;5.10;;;;;;;26.33;22.95;98114.19;5075610;28;20029;-80
2022/04/26 12:00:56;;;;;;;7.43;4.03;;;;;;;27.93;21.18;98104.81;5076784;28;20056;-80
2022/04/26 12:03:28;;;;;;;4.83;4.10;;;;;;;28.53;20.44;98108.94;5091785;28;20025;-80
2022/04/26 12:05:57;;;;;;;4.63;3.92;;;;;;;27.88;20.37;98105.38;5077528;28;20036;-80
2022/04/26 12:08:24;;;;;;;7.25;5.45;;;;;;;28.71;19.18;98108.25;5078120;28;20541;-80
2022/04/26 12:10:50;;;;;;;5.40;3.92;;;;;;;29.20;18.37;98105.44;5076572;28;20037;-80
2022/04/26 12:13:30;;;;;;;5.90;4.63;;;;;;;28.27;20.27;98110.38;5077659;28;20391;-79
2022/04/26 12:16:12;;;;;;;5.32;3.28;;;;;;;28.27;20.37;98103.94;5078555;28;20406;-80
2022/04/26 12:18:51;;;;;;;6.07;4.82;;;;;;;28.21;20.19;98109.41;5077332;28;20036;-80
2022/04/26 12:21:18;;;;;;;4.70;3.28;;;;;;;28.29;20.36;98099.41;5080258;28;20040;-80
2022/04/26 12:23:44;;;;;;;3.60;3.08;;;;;;;29.35;19.17;98112.09;5077969;28;20033;-80
2022/04/26 12:26:10;;;;;;;3.92;3.53;;;;;;;28.31;19.91;98113.84;5072971;28;20040;-80
2022/04/26 12:28:50;;;;;;;8.43;3.60;;;;;;;27.48;20.16;98107.25;5080225;28;20046;-80
2022/04/26 12:31:25;;;;;;;5.28;4.05;;;;;;;26.79;20.17;98118.44;5075458;28;20089;-80
2022/04/26 12:34:12;;;;;;;5.45;4.20;;;;;;;26.64;21.31;98117.25;5075801;28;20028;-80
2022/04/26 12:37:00;;;;;;;4.07;3.45;;;;;;;26.62;22.18;98108.47;5077695;28;20064;-80
2022/04/26 12:39:43;;;;;;;5.50;4.50;;;;;;;26.19;20.07;98117.44;5079947;28;20111;-81
2022/04/26 12:42:12;;;;;;;5.63;4.00;;;;;;;27.85;20.43;98109.91;5075026;28;20029;-80
2022/04/26 12:44:51;;;;;;;5.75;4.28;;;;;;;28.12;19.48;98108.56;5077212;28;20037;-80
2022/04/26 12:52:53;;;;;;;5.88;4.07;;;;;;;28.38;19.51;98110.75;5073773;28;20051;-80
2022/04/26 12:55:30;;;;;;;4.18;3.40;;;;;;;28.54;19.36;98107.69;5077318;28;20082;-80
2022/04/26 12:58:02;;;;;;;4.70;3.33;;;;;;;28.64;18.08;98111.38;5079900;28;20036;-80
2022/04/26 13:00:29;;;;;;;2.63;2.22;;;;;;;29.21;17.76;98110.66;5078935;28;20131;-80
2022/04/26 13:02:59;;;;;;;4.40;2.85;;;;;;;29.72;17.42;98110.84;5077572;28;20036;-80
2022/04/26 13:05:25;;;;;;;3.23;2.60;;;;;;;28.95;18.54;98105.66;5077476;28;20055;-80
2022/04/26 13:07:52;;;;;;;3.33;2.20;;;;;;;28.49;18.44;98110.34;5072898;28;20036;-79
2022/04/26 13:10:19;;;;;;;7.18;3.63;;;;;;;27.69;19.47;98109.31;5074466;28;20493;-80
2022/04/26 13:12:46;;;;;;;5.35;3.35;;;;;;;26.65;20.24;98113.97;5076938;28;20032;-79
2022/04/26 13:15:15;;;;;;;3.65;3.13;;;;;;;27.62;19.61;98106.75;5075767;28;20185;-80
2022/04/26 13:17:43;;;;;;;3.90;3.00;;;;;;;27.76;20.09;98114.69;5077869;28;20089;-80
2022/04/26 13:20:13;;;;;;;6.25;4.13;;;;;;;27.97;19.16;98108.28;5078268;28;20115;-79
2022/04/26 13:22:39;;;;;;;5.47;4.00;;;;;;;28.41;18.73;98104.19;5075040;28;20473;-80
2022/04/26 13:25:06;;;;;;;5.75;3.83;;;;;;;28.02;19.87;98113.34;5076699;28;20696;-80
2022/04/26 13:27:33;;;;;;;5.65;3.97;;;;;;;28.14;19.51;98120.19;5074381;28;20114;-80
2022/04/26 13:29:59;;;;;;;4.22;3.03;;;;;;;29.05;18.22;98108.06;5073776;28;20109;-79
2022/04/26 13:32:27;;;;;;;5.28;4.35;;;;;;;28.44;19.19;98114.56;5075539;28;20481;-80
2022/04/26 13:34:53;;;;;;;5.95;3.85;;;;;;;28.64;19.34;98109.34;5073017;28;20039;-80
2022/04/26 13:37:19;;;;;;;5.78;3.47;;;;;;;28.12;19.49;98112.19;5071148;28;20036;-79
2022/04/26 13:39:46;;;;;;;5.20;3.83;;;;;;;28.46;20.61;98108.44;5077469;28;20028;-79
2022/04/26 13:42:12;;;;;;;5.03;3.65;;;;;;;28.62;19.59;98105.41;5076124;28;20397;-79
2022/04/26 13:44:38;;;;;;;4.80;3.72;;;;;;;29.40;18.56;98109.44;5074708;28;20034;-79
2022/04/26 13:47:06;;;;;;;5.03;3.70;;;;;;;29.11;19.43;98114.69;5072621;28;20047;-78
2022/04/26 13:49:34;;;;;;;6.03;4.68;;;;;;;28.31;19.61;98113.06;5074397;28;20533;-78
2022/04/26 13:52:01;;;;;;;5.93;4.82;;;;;;;27.94;20.40;98106.34;5075462;28;20131;-78
2022/04/26 13:54:27;;;;;;;6.10;4.72;;;;;;;28.20;21.25;98107.81;5073808;28;20313;-78
2022/04/26 13:56:57;;;;;;;6.10;5.00;;;;;;;27.87;20.64;98115.09;5069841;28;20508;-78
2022/04/26 13:59:24;;;;;;;6.75;4.70;;;;;;;28.03;21.26;98117.75;5076208;28;20038;-78
2022/04/26 14:01:52;;;;;;;10.30;5.45;;;;;;;28.56;19.95;98110.84;5071652;28;20065;-78
2022/04/26 14:04:18;;;;;;;9.70;5.65;;;;;;;28.47;20.00;98113.59;5070729;28;20520;-79
2022/04/26 14:06:45;;;;;;;8.35;5.22;;;;;;;27.82;20.83;98113.66;5075329;28;20043;-79
2022/04/26 14:09:12;;;;;;;7.32;5.55;;;;;;;28.39;20.17;98120.00;5076730;28;20170;-79
2022/04/26 14:11:38;;;;;;;7.72;4.60;;;;;;;28.52;20.48;98109.41;5073461;28;20036;-79
2022/04/26 14:22:18;;;;;;;6.45;5.00;;;;;;;27.66;20.84;98113.03;5074629;28;20579;-79
2022/04/26 14:24:45;;;;;;;8.00;4.45;;;;;;;28.32;19.78;98121.06;5076289;28;20097;-78
2022/04/26 14:27:11;;;;;;;5.50;4.63;;;;;;;28.93;19.43;98119.50;5076544;28;20042;-79
2022/04/26 14:29:37;;;;;;;4.95;4.05;;;;;;;27.91;20.88;98112.94;5072754;28;20135;-78
2022/04/26 14:32:04;;;;;;;4.53;3.72;;;;;;;28.05;20.80;98121.69;5072932;28;20062;-79
2022/04/26 14:34:31;;;;;;;7.68;4.90;;;;;;;27.05;21.54;98110.72;5078473;28;20039;-79
2022/04/26 14:37:00;;;;;;;9.65;5.80;;;;;;;25.19;24.13;98117.78;5071805;28;20043;-79
2022/04/26 14:39:26;;;;;;;9.73;6.97;;;;;;;24.28;25.73;98117.94;5075230;28;20024;-79
2022/04/26 14:41:53;;;;;;;9.52;5.75;;;;;;;26.56;23.00;98115.91;5072052;28;20036;-78
2022/04/26 14:44:19;;;;;;;8.73;6.38;;;;;;;27.55;21.57;98110.63;5070648;28;20059;-80
2022/04/26 14:46:45;;;;;;;6.55;5.03;;;;;;;27.72;21.70;98112.03;5073609;28;20455;-79
2022/04/26 14:49:11;;;;;;;5.82;4.63;;;;;;;26.49;23.08;98111.28;5072604;28;20611;-79
2022/04/26 14:51:40;;;;;;;9.48;6.25;;;;;;;25.88;23.27;98116.34;5071348;28;20478;-79
2022/04/26 14:54:06;;;;;;;8.57;6.68;;;;;;;24.72;24.53;98117.31;5079401;28;20066;-79
2022/04/26 14:56:32;;;;;;;10.93;7.53;;;;;;;24.04;25.58;98115.22;5073499;28;20039;-79
2022/04/26 14:59:01;;;;;;;10.18;6.95;;;;;;;25.14;24.05;98121.91;5072073;28;20029;-79
2022/04/26 15:01:29;;;;;;;10.88;7.10;;;;;;;24.57;24.84;98118.88;5068110;28;20178;-80
2022/04/26 15:03:58;;;;;;;12.05;7.35;;;;;;;25.90;24.37;98127.94;5069017;28;20024;-79
2022/04/26 15:06:24;;;;;;;9.50;7.10;;;;;;;27.30;21.76;98119.13;5075320;28;20044;-79
2022/04/26 15:11:35;;;;;;;8.10;5.85;;;;;;;27.39;21.02;98122.84;5072663;28;20054;-80
2022/04/26 15:16:49;;;;;;;7.32;5.53;;;;;;;28.55;20.54;98119.78;5071806;28;20455;-79
2022/04/26 15:19:15;;;;;;;9.18;5.78;;;;;;;27.35;21.41;98122.13;5066960;28;20032;-79
2022/04/26 15:21:43;;;;;;;7.72;5.80;;;;;;;27.38;21.49;98123.28;5071812;28;20398;-79
2022/04/26 15:24:10;;;;;;;8.88;6.25;;;;;;;27.50;21.14;98130.94;5070835;28;20060;-79
2022/04/26 15:26:36;;;;;;;8.73;5.80;;;;;;;26.05;22.96;98129.88;5071710;28;20028;-79
2022/04/26 15:29:04;;;;;;;9.48;6.07;;;;;;;24.52;24.81;98131.44;5072146;28;20036;-79
2022/04/26 15:31:31;;;;;;;12.07;6.78;;;;;;;24.30;24.69;98129.50;5069155;28;20047;-79
2022/04/26 15:33:57;;;;;;;9.32;6.60;;;;;;;25.15;24.25;98137.56;5068778;28;20044;-81
2022/04/26 15:36:23;;;;;;;11.32;6.25;;;;;;;24.49;25.01;98137.91;5071484;28;20024;-78
2022/04/26 15:38:50;;;;;;;9.93;6.25;;;;;;;26.56;22.28;98132.78;5071026;28;20473;-77
2022/04/26 15:41:17;;;;;;;7.72;5.63;;;;;;;26.33;22.41;98136.72;5070958;28;20763;-76
2022/04/26 15:43:43;;;;;;;8.48;5.88;;;;;;;27.13;21.35;98128.97;5071497;28;20029;-77
2022/04/26 15:46:10;;;;;;;8.50;6.65;;;;;;;24.19;24.39;98140.97;5071291;28;20021;-78
2022/04/26 15:48:44;;;;;;;12.27;7.13;;;;;;;24.33;24.12;98145.50;5071522;28;20528;-76